Port-Menier, Canada
Current Conditions -  °F | °C
As of 3:00 PM on Sunday 28 Dec 2014 (Local Time) from CYGV Reporting Station
Overcast Overcast  
Wind Chill: 16°   Ceiling: 4200
Heat Index: 23°   Visibility: 9mi
Dew Point: 16°   Wind: 6mph
Humidity: 74%   Direction: 50°NE
Pressure: 29.56"   Gusts: NA
Location:  49.83°N, 64.37°W
Report Text: CYGV 281900Z AUTO 05005KT 9SM OVC042 M05/M09 A2956 RMK SLP014
Loading
Personal Weather Stations






























Interactive Weather Map New forecast layout! Learn more

10-Day Weather Forecast

Advertisements
Track Severe Weather on mobile